• Join FlightAware (Why Join?)
  • Login
  • US Flag 
02:25PM EDT


 

Airport Tracker/Info


-or-


 

Live Flight TrackerFlight Track Log ✈ N591CA ✈ 30-Aug-2013 ✈ KCGF - KLPR

Flight Track Log - Related Links

Times and Time Zones

All times are in EDT time to prevent confusion due to time zone crossing. See the N591CA flight status page for this flight to view local times or setup timezone preferences in your user account.

Time Position Orientation Groundspeed Altitude Reporting Facility
EDT Latitude Longitude Course Direction KTS MPH feet Rate Location/Type
07:06AM 41.5603 -81.4961 300° West 76 87 1,300  Level Cleveland Center
07:06AM 41.5664 -81.5100 300° West 81 93 1,900 780 Climbing Cleveland Center
07:07AM 41.5850 -81.5325 318° Northwest 91 105 2,800 540 Climbing Cleveland Center
07:08AM 41.5950 -81.5661 292° West 128 147 3,000 60 Climbing Cleveland Center
07:09AM 41.6031 -81.6161 282° West 128 147 3,000  Level Cleveland Center
07:10AM 41.6089 -81.6550 281° West 125 144 3,000  Level Cleveland Center
07:11AM 41.6167 -81.7025 282° West 123 142 3,000  Level Cleveland Center
07:12AM 41.6247 -81.7469 284° West 126 145 3,000  Level Cleveland Center
07:13AM 41.6344 -81.8000 284° West 128 147 3,000  Level Cleveland Center
07:14AM 41.6300 -81.8472 263° West 121 139 3,100  Climbing Cleveland Center
07:16AM 41.6231 -81.8969 259° West 125 144 3,000 -60 Descending Cleveland Center
07:17AM 41.6081 -81.9328 241° Southwest 124 143 3,000  Level Cleveland Center
07:17AM 41.5931 -81.9686 241° Southwest 123 142 3,000  Level Cleveland Center
07:19AM 41.5736 -82.0153 241° Southwest 126 145 3,000  Level Cleveland Center
07:20AM 41.5564 -82.0539 239° Southwest 126 145 3,000  Level Cleveland Center
07:21AM 41.5372 -82.0978 240° Southwest 129 148 3,100  Climbing Cleveland Center
07:21AM 41.5181 -82.1306 232° Southwest 126 145 3,000 -60 Descending Cleveland Center
07:23AM 41.4819 -82.1825 227° Southwest 128 147 3,000  Level Cleveland Center
07:24AM 41.4647 -82.2125 233° Southwest 127 146 3,000  Level Cleveland Center
07:25AM 41.4433 -82.2481 231° Southwest 126 145 3,000  Level Cleveland Center
07:26AM 41.4197 -82.2889 232° Southwest 127 146 3,000  Level Cleveland Center
07:27AM 41.3983 -82.3269 233° Southwest 125 144 3,000  Level Cleveland Center
07:28AM 41.3769 -82.3597 229° Southwest 125 144 3,000  Level Cleveland Center
07:29AM 41.3600 -82.3925 235° Southwest 127 146 3,000  Level Cleveland Center
07:30AM 41.3364 -82.4306 230° Southwest 125 144 3,000  Level Cleveland Center
07:31AM 41.3089 -82.4464 203° Southwest 132 152 3,000  Level Cleveland Center
07:32AM 41.2911 -82.3986 116° Southeast 135 155 3,000  Level Cleveland Center
07:33AM 41.2789 -82.3653 116° Southeast 114 131 3,100  Climbing Cleveland Center
07:34AM 41.2922 -82.3214 68° East 122 140 3,000 -420 Descending Cleveland Center
07:35AM 41.3053 -82.2831 66° East 116 133 2,300 -600 Descending Cleveland Center
07:36AM 41.3183 -82.2531 60° Northeast 104 120 1,900 -480 Descending Cleveland Center